Terminal Aerodrome Forecast
Issued by NWS Omaha/Valley, NE

Current Version | Previous Version | Text Only | Print | Product List | Glossary On
Versions: 1 2 3 4 5 6 7 8 9 10 11 12 13 14 15 16 17 18 19 20
000
FTUS43 KOAX 162320
TAFLNK
TAF
KLNK 162320Z 1700/1724 19010KT P6SM FEW250
     FM170200 19009KT P6SM FEW250 WS020/22040KT
     FM171100 20005KT P6SM SKC=

USA.gov is the U.S. government's official web portal to all federal, state and local government web resources and services.